createdAt,value
2023-04-03T00:04:53.280Z,74.4
2023-04-03T00:09:53.443Z,74.7
2023-04-03T00:14:53.294Z,75.1
2023-04-03T00:19:53.350Z,74.7
2023-04-03T00:24:53.397Z,74.7
2023-04-03T00:29:53.320Z,75.1
2023-04-03T00:34:53.471Z,74.7
2023-04-03T00:39:53.335Z,75
2023-04-03T00:45:25.251Z,75.6
2023-04-03T00:49:53.311Z,75.9
2023-04-03T00:54:54.769Z,75.9
2023-04-03T00:59:53.326Z,76.8
2023-04-03T01:04:53.352Z,77.3
2023-04-03T01:09:53.173Z,76.8
2023-04-03T01:14:53.459Z,77.7
2023-04-03T01:19:53.166Z,78
2023-04-03T01:24:53.491Z,77.3
2023-04-03T01:29:53.114Z,78
2023-04-03T01:34:53.485Z,78.3
2023-04-03T01:39:53.425Z,78.9
2023-04-03T01:44:53.245Z,80
2023-04-03T01:49:53.539Z,79.5
2023-04-03T01:54:53.372Z,80.1
2023-04-03T01:59:53.128Z,81
2023-04-03T02:04:53.365Z,81.2
2023-04-03T02:09:53.536Z,80.8
2023-04-03T02:14:53.348Z,81.5
2023-04-03T02:19:53.409Z,82.4
2023-04-03T02:24:53.163Z,82.1
2023-04-03T02:29:53.788Z,82.7
2023-04-03T02:34:53.347Z,82.8
2023-04-03T02:39:53.523Z,83.9
2023-04-03T02:44:53.250Z,84
2023-04-03T02:49:53.188Z,84.6
2023-04-03T02:54:53.287Z,84
2023-04-03T02:59:53.338Z,84.6
2023-04-03T03:04:53.175Z,84.9
2023-04-03T03:09:53.656Z,85.7
2023-04-03T03:14:53.322Z,85.5
2023-04-03T03:19:53.265Z,86.5
2023-04-03T03:24:52.985Z,86.7
2023-04-03T03:29:53.209Z,88.1
2023-04-03T03:34:53.078Z,87.9
2023-04-03T03:39:53.527Z,88.6
2023-04-03T03:44:53.307Z,88.9
2023-04-03T03:49:53.254Z,89.1
2023-04-03T03:54:53.259Z,34
2023-04-03T03:59:53.014Z,35
2023-04-03T04:04:53.004Z,35
2023-04-03T04:09:53.438Z,35
2023-04-03T04:14:53.074Z,36
2023-04-03T04:19:53.351Z,36
2023-04-03T04:24:53.020Z,37
2023-04-03T04:29:53.449Z,37
2023-04-03T04:34:53.142Z,37
2023-04-03T04:39:53.135Z,37
2023-04-03T04:44:53.078Z,38
2023-04-03T04:49:53.140Z,38
2023-04-03T04:54:52.983Z,38
2023-04-03T04:59:52.905Z,39
2023-04-03T05:04:53.310Z,39
2023-04-03T05:09:53.235Z,39
2023-04-03T05:14:52.859Z,39
2023-04-03T05:19:53.084Z,39
2023-04-03T05:24:53.012Z,39
2023-04-03T05:29:53.490Z,39
2023-04-03T05:34:53.006Z,39
2023-04-03T05:39:53.944Z,39
2023-04-03T05:44:52.855Z,39
2023-04-03T05:49:53.455Z,39
2023-04-03T05:54:53.295Z,39
2023-04-03T05:59:53.190Z,39
2023-04-03T06:04:53.311Z,39
2023-04-03T06:09:55.462Z,39
2023-04-03T06:14:52.882Z,39
2023-04-03T06:19:53.417Z,39
2023-04-03T06:24:52.844Z,39
2023-04-03T06:29:52.908Z,39
2023-04-03T06:34:53.185Z,39
2023-04-03T06:39:53.222Z,89.6
2023-04-03T06:44:53.219Z,88.8
2023-04-03T06:49:53.099Z,87
2023-04-03T06:54:53.095Z,84.9
2023-04-03T06:59:52.982Z,83.9
2023-04-03T07:04:53.009Z,82.4
2023-04-03T07:09:52.874Z,80.7
2023-04-03T07:14:53.133Z,80.1
2023-04-03T07:19:53.049Z,78.7
2023-04-03T07:24:52.937Z,77.7
2023-04-03T07:29:53.900Z,76.4
2023-04-03T07:34:53.104Z,76.4
2023-04-03T07:39:52.834Z,76.1
2023-04-03T07:44:52.923Z,74.5
2023-04-03T07:49:53.110Z,71.9
2023-04-03T07:54:52.740Z,70.2
2023-04-03T07:59:52.971Z,66.7
2023-04-03T08:04:52.936Z,66.2
2023-04-03T08:09:53.097Z,65
2023-04-03T08:14:52.970Z,62.4
2023-04-03T08:19:53.035Z,62.8
2023-04-03T08:24:58.986Z,59.9
2023-04-03T08:29:53.014Z,60.3
2023-04-03T08:34:52.994Z,55.3
2023-04-03T08:39:53.040Z,54
2023-04-03T08:44:56.540Z,51.2
2023-04-03T08:49:53.077Z,52
2023-04-03T08:54:53.043Z,46.6
2023-04-03T08:59:52.768Z,45.1
2023-04-03T09:04:53.025Z,45.8
2023-04-03T09:09:52.720Z,44.7
2023-04-03T09:14:57.759Z,43.2
2023-04-03T09:19:52.971Z,43
2023-04-03T09:24:56.998Z,37
2023-04-03T09:29:52.791Z,38.3
2023-04-03T09:34:52.929Z,35.9
2023-04-03T09:39:52.805Z,35.6
2023-04-03T09:44:52.927Z,35.4
2023-04-03T09:49:53.046Z,36.6
2023-04-03T09:54:52.887Z,35.6
2023-04-03T09:59:52.772Z,36.3
2023-04-03T10:05:08.438Z,36
2023-04-03T10:09:55.049Z,35.4
2023-04-03T10:14:52.961Z,35.3
2023-04-03T10:19:52.757Z,35.7
2023-04-03T10:24:57.633Z,33.6
2023-04-03T10:29:52.877Z,32.9
2023-04-03T10:35:04.589Z,33.1
2023-04-03T10:39:52.714Z,32.4
2023-04-03T10:44:52.946Z,32.4
2023-04-03T10:50:00.003Z,32.4
2023-04-03T10:54:52.627Z,31.4
2023-04-03T10:59:52.872Z,30.3
2023-04-03T11:04:54.864Z,29.3
2023-04-03T11:09:52.551Z,29.3
2023-04-03T11:14:52.569Z,28.8
2023-04-03T11:19:52.889Z,28
2023-04-03T11:24:52.677Z,29
2023-04-03T11:29:52.579Z,30.2
2023-04-03T11:34:54.040Z,28.6
2023-04-03T11:39:52.793Z,30
2023-04-03T11:44:52.540Z,30.5
2023-04-03T11:49:52.580Z,30.6
2023-04-03T11:54:52.759Z,31.1
2023-04-03T11:59:52.782Z,31.6
2023-04-03T12:05:25.126Z,31.4
2023-04-03T12:09:52.747Z,32.6
2023-04-03T12:14:52.850Z,32.2
2023-04-03T12:19:52.883Z,31.6
2023-04-03T12:24:52.558Z,32.3
2023-04-03T12:29:52.635Z,31.7
2023-04-03T12:35:03.473Z,32.2
2023-04-03T12:40:01.239Z,31.7
2023-04-03T12:44:52.451Z,31
2023-04-03T12:49:52.933Z,30.7
2023-04-03T12:54:52.794Z,28.7
2023-04-03T12:59:52.747Z,28.2
2023-04-03T13:04:52.471Z,28.4
2023-04-03T13:09:52.536Z,28.8
2023-04-03T13:14:52.427Z,29
2023-04-03T13:19:53.606Z,29.2
2023-04-03T13:24:52.560Z,29.1
2023-04-03T13:29:52.730Z,28.2
2023-04-03T13:34:52.614Z,29.3
2023-04-03T13:39:59.816Z,29.6
2023-04-03T13:44:52.615Z,27.6
2023-04-03T13:49:52.776Z,28.4
2023-04-03T13:54:52.519Z,28.6
2023-04-03T13:59:52.583Z,29.4
2023-04-03T14:04:52.632Z,29.1
2023-04-03T14:09:53.660Z,28.5
2023-04-03T14:14:52.624Z,28.8
2023-04-03T14:19:53.283Z,28.9
2023-04-03T14:24:52.877Z,30.6
2023-04-03T14:29:53.838Z,30.3
2023-04-03T14:34:52.677Z,30.1
2023-04-03T14:39:52.556Z,30.3
2023-04-03T14:44:52.705Z,31
2023-04-03T14:49:52.765Z,29.6
2023-04-03T14:54:52.780Z,30.3
2023-04-03T14:59:52.356Z,30
2023-04-03T15:04:53.663Z,29.5
2023-04-03T15:09:52.623Z,29.6
2023-04-03T15:14:59.479Z,30
2023-04-03T15:19:52.865Z,30.3
2023-04-03T15:24:52.538Z,30.5
2023-04-03T15:29:52.446Z,30.5
2023-04-03T15:34:55.945Z,30.2
2023-04-03T15:39:52.436Z,30.7
2023-04-03T15:44:52.764Z,31.5
2023-04-03T15:49:52.386Z,31.6
2023-04-03T15:54:52.557Z,32.1
2023-04-03T15:59:52.538Z,31.9
2023-04-03T16:04:52.661Z,32.7
2023-04-03T16:09:52.719Z,32.5
2023-04-03T16:14:52.317Z,33.7
2023-04-03T16:19:52.436Z,35.2
2023-04-03T16:24:52.312Z,35.2
2023-04-03T16:29:52.449Z,36.2
2023-04-03T16:34:52.669Z,37.2
2023-04-03T16:39:52.405Z,36.8
2023-04-03T16:44:52.463Z,37.7
2023-04-03T16:49:52.800Z,38.5
2023-04-03T16:54:52.360Z,39.8
2023-04-03T16:59:52.459Z,39.7
2023-04-03T17:04:52.493Z,40.6
2023-04-03T17:09:52.258Z,41.3
2023-04-03T17:14:52.219Z,41.6
2023-04-03T17:19:53.828Z,41.7
2023-04-03T17:24:52.307Z,42.2
2023-04-03T17:29:52.426Z,41.7
2023-04-03T17:34:52.698Z,42.2
2023-04-03T17:39:52.247Z,42.2
2023-04-03T17:44:52.379Z,42.8
2023-04-03T17:49:52.551Z,42.3
2023-04-03T17:54:52.247Z,42.8
2023-04-03T17:59:52.821Z,42.8
2023-04-03T18:04:52.653Z,43.1
2023-04-03T18:09:54.745Z,43.5
2023-04-03T18:14:52.805Z,43.7
2023-04-03T18:19:52.287Z,44.3
2023-04-03T18:24:52.203Z,44.3
2023-04-03T18:29:55.209Z,44.8
2023-04-03T18:34:52.530Z,45.5
2023-04-03T18:39:52.522Z,45.4
2023-04-03T18:44:52.420Z,45.5
2023-04-03T18:49:52.837Z,46.1
2023-04-03T18:54:52.256Z,45.8
2023-04-03T18:59:52.543Z,46.2
2023-04-03T19:04:52.465Z,46.7
2023-04-03T19:09:52.438Z,46.8
2023-04-03T19:14:52.129Z,47.3
2023-04-03T19:19:52.607Z,47.3
2023-04-03T19:24:52.178Z,47.9
2023-04-03T19:29:52.340Z,48
2023-04-03T19:34:52.548Z,49.3
2023-04-03T19:39:52.390Z,48.5
2023-04-03T19:44:52.588Z,49.5
2023-04-03T19:49:52.628Z,48.8
2023-04-03T19:54:53.054Z,49.1
2023-04-03T19:59:52.075Z,49.8
2023-04-03T20:04:52.595Z,50.3
2023-04-03T20:09:52.476Z,49.9
2023-04-03T20:14:52.280Z,50.3
2023-04-03T20:19:52.302Z,50.9
2023-04-03T20:24:52.030Z,51.5
2023-04-03T20:29:52.091Z,50.9
2023-04-03T20:35:02.995Z,51.5
2023-04-03T20:39:52.227Z,51.8
2023-04-03T20:44:52.348Z,52.2
2023-04-03T20:49:52.166Z,51.9
2023-04-03T20:54:52.383Z,52.2
2023-04-03T20:59:52.216Z,52.7
2023-04-03T21:04:53.827Z,52.5
2023-04-03T21:09:52.028Z,52.1
2023-04-03T21:15:34.196Z,52.5
2023-04-03T21:19:52.341Z,53.2
2023-04-03T21:24:52.329Z,52.9
2023-04-03T21:29:51.964Z,53.9
2023-04-03T21:34:52.046Z,53.2
2023-04-03T21:39:52.329Z,54.4
2023-04-03T21:44:52.161Z,55.7
2023-04-03T21:49:52.565Z,56
2023-04-03T21:54:52.324Z,57
2023-04-03T22:00:03.843Z,58.1
2023-04-03T22:04:52.281Z,57.7
2023-04-03T22:09:52.004Z,57
2023-04-03T22:14:52.420Z,57.3
2023-04-03T22:19:52.303Z,57.3
2023-04-03T22:24:52.261Z,57.9
2023-04-03T22:29:52.212Z,58.7
2023-04-03T22:34:52.133Z,59.6
2023-04-03T22:39:52.267Z,59.9
2023-04-03T22:44:52.183Z,60.3
2023-04-03T22:49:52.160Z,60.4
2023-04-03T22:54:52.254Z,60.6
2023-04-03T22:59:52.270Z,61.6
2023-04-03T23:04:52.218Z,62
2023-04-03T23:09:52.360Z,62.2
2023-04-03T23:14:52.361Z,63.2
2023-04-03T23:19:52.180Z,63.2
2023-04-03T23:24:52.039Z,63.3
2023-04-03T23:29:52.235Z,63.7
2023-04-03T23:34:51.886Z,64.1
2023-04-03T23:39:52.269Z,63.9
2023-04-03T23:44:51.930Z,63.5
2023-04-03T23:49:51.984Z,64.1
2023-04-03T23:54:52.115Z,64.5
2023-04-03T23:59:52.107Z,65.1
